Time;durP1;ratioP1;P1;durP2;ratioP2;P2;SDS_P1;SDS_P2;PMS_P1;PMS_P2;Temp;Humidity;BMP_temperature;BMP_pressure;BME280_temperature;BME280_humidity;BME280_pressure;Samples;Min_cycle;Max_cycle;Signal;HPM_P1;HPM_P2
2021/12/07 00:01:36;;;;;;;9.45;6.60;;;5.20;99.90;;;;;;5069009;28;20028;-82
2021/12/07 00:04:07;;;;;;;8.30;6.55;;;5.20;99.90;;;;;;5068037;28;20028;-81
2021/12/07 00:06:34;;;;;;;8.48;6.72;;;5.30;99.90;;;;;;5068122;28;20036;-80
2021/12/07 00:09:00;;;;;;;8.93;6.95;;;5.30;99.90;;;;;;5068130;28;20035;-83
2021/12/07 00:11:28;;;;;;;8.95;6.72;;;5.30;99.90;;;;;;5035362;28;20025;-82
2021/12/07 00:13:58;;;;;;;8.02;5.93;;;5.30;99.90;;;;;;5073814;28;20040;-82
2021/12/07 00:16:26;;;;;;;8.35;6.38;;;5.30;99.90;;;;;;5068810;28;20162;-82
2021/12/07 00:18:52;;;;;;;8.02;6.57;;;5.30;99.90;;;;;;5067565;28;20039;-82
2021/12/07 00:21:19;;;;;;;8.80;6.68;;;5.20;99.90;;;;;;5067613;28;20082;-82
2021/12/07 00:23:47;;;;;;;8.40;6.05;;;5.40;99.90;;;;;;5067762;28;20029;-82
2021/12/07 00:26:13;;;;;;;8.70;6.30;;;5.20;99.90;;;;;;5069872;28;20115;-82
2021/12/07 00:28:40;;;;;;;7.20;5.68;;;5.20;99.90;;;;;;5071290;28;20466;-83
2021/12/07 00:31:22;;;;;;;6.85;5.75;;;5.10;99.90;;;;;;5067775;28;20120;-82
2021/12/07 00:33:55;;;;;;;6.45;5.35;;;5.20;99.90;;;;;;5067366;28;20037;-82
2021/12/07 00:36:20;;;;;;;8.23;5.75;;;5.20;99.90;;;;;;5067174;28;20112;-82
2021/12/07 00:38:46;;;;;;;7.05;5.40;;;5.20;99.90;;;;;;5067845;28;20120;-82
2021/12/07 00:41:12;;;;;;;7.30;5.68;;;5.20;99.90;;;;;;5070045;28;20032;-82
2021/12/07 00:43:37;;;;;;;7.13;5.32;;;5.50;99.90;;;;;;5069237;28;20028;-83
2021/12/07 00:46:03;;;;;;;7.47;5.75;;;5.20;99.90;;;;;;5067850;28;20115;-82
2021/12/07 00:48:30;;;;;;;7.15;5.70;;;5.20;99.90;;;;;;5067311;28;20115;-82
2021/12/07 00:50:57;;;;;;;7.70;5.90;;;5.20;99.90;;;;;;5065594;28;20028;-82
2021/12/07 00:53:25;;;;;;;7.88;6.15;;;5.20;99.90;;;;;;5067861;28;20025;-83
2021/12/07 00:55:53;;;;;;;7.28;5.68;;;5.20;99.90;;;;;;5072829;28;20029;-82
2021/12/07 00:58:23;;;;;;;8.45;5.60;;;5.30;99.90;;;;;;5065980;28;20504;-82
2021/12/07 01:00:57;;;;;;;6.93;4.97;;;5.20;99.90;;;;;;5067017;28;20077;-82
2021/12/07 01:03:24;;;;;;;6.45;5.25;;;5.20;99.90;;;;;;5065615;28;20107;-83
2021/12/07 01:05:53;;;;;;;7.22;5.20;;;5.10;99.90;;;;;;5066876;28;20037;-82
2021/12/07 01:24:41;;;;;;;7.25;5.90;;;5.20;99.90;;;;;;5066716;28;20162;-82
2021/12/07 01:27:09;;;;;;;8.40;6.65;;;5.30;99.90;;;;;;5066740;28;20051;-82
2021/12/07 01:29:36;;;;;;;8.30;6.15;;;5.20;99.90;;;;;;5065006;28;20056;-82
2021/12/07 01:32:19;;;;;;;9.13;6.68;;;5.30;99.90;;;;;;5070936;28;20107;-82
2021/12/07 02:00:50;;;;;;;8.65;6.85;;;5.40;99.90;;;;;;5065773;28;20103;-83
2021/12/07 02:03:17;;;;;;;9.40;6.63;;;5.90;99.90;;;;;;5064129;28;20115;-82
2021/12/07 02:05:43;;;;;;;8.57;6.63;;;5.60;99.90;;;;;;5065043;28;20108;-82
2021/12/07 02:08:09;;;;;;;8.98;6.85;;;5.40;99.90;;;;;;5069077;28;20028;-83
2021/12/07 02:10:35;;;;;;;9.77;7.30;;;5.40;99.90;;;;;;5068992;28;20495;-82
2021/12/07 02:13:06;;;;;;;9.20;7.03;;;5.30;99.90;;;;;;5065684;28;20532;-82
2021/12/07 02:15:32;;;;;;;10.02;7.15;;;5.60;99.90;;;;;;5065570;28;20031;-82
2021/12/07 02:17:59;;;;;;;8.73;7.30;;;5.40;99.90;;;;;;5065478;28;20029;-82
2021/12/07 02:20:28;;;;;;;9.63;7.07;;;5.40;99.90;;;;;;5066101;28;20025;-82
2021/12/07 02:22:54;;;;;;;11.73;7.85;;;5.50;99.90;;;;;;5071743;28;20028;-82
2021/12/07 02:25:20;;;;;;;9.52;6.88;;;5.40;99.90;;;;;;5065354;28;20063;-82
2021/12/07 02:27:48;;;;;;;9.85;7.63;;;5.40;99.90;;;;;;5065525;28;20044;-83
2021/12/07 02:30:19;;;;;;;8.18;6.72;;;5.40;99.90;;;;;;5065791;28;20024;-82
2021/12/07 02:32:46;;;;;;;8.77;7.70;;;5.80;99.90;;;;;;5065181;28;20025;-82
2021/12/07 02:35:13;;;;;;;9.52;7.55;;;5.40;99.90;;;;;;5050696;28;20370;-82
2021/12/07 02:37:39;;;;;;;9.07;7.05;;;5.40;99.90;;;;;;5067513;28;20116;-82
2021/12/07 02:40:07;;;;;;;10.68;7.88;;;5.40;99.90;;;;;;5065399;28;20115;-81
2021/12/07 02:42:32;;;;;;;9.63;8.05;;;5.30;99.90;;;;;;5065418;28;20013;-82
2021/12/07 02:44:58;;;;;;;9.82;7.55;;;5.30;99.90;;;;;;5047639;28;20077;-83
2021/12/07 02:47:23;;;;;;;12.68;9.40;;;5.80;99.90;;;;;;5065410;28;20022;-83
2021/12/07 02:49:49;;;;;;;11.68;8.93;;;5.30;99.90;;;;;;5070271;28;20036;-83
2021/12/07 02:52:15;;;;;;;11.90;9.20;;;5.30;99.90;;;;;;5065445;28;20032;-82
2021/12/07 02:54:49;;;;;;;12.85;9.55;;;5.30;99.90;;;;;;5065255;28;20093;-82
2021/12/07 02:57:17;;;;;;;15.15;11.82;;;5.20;99.90;;;;;;5064204;28;20111;-82
2021/12/07 02:59:52;;;;;;;17.52;11.85;;;5.20;99.90;;;;;;5065707;28;20029;-82
2021/12/07 03:02:19;;;;;;;17.50;12.45;;;5.00;99.90;;;;;;5066702;28;20048;-82
2021/12/07 03:05:04;;;;;;;19.20;13.35;;;4.90;99.90;;;;;;5070061;28;20453;-83
2021/12/07 03:26:30;;;;;;;20.75;13.55;;;5.00;99.90;;;;;;5036425;28;20044;-82
2021/12/07 03:28:58;;;;;;;17.85;12.90;;;4.60;99.90;;;;;;5075223;28;20070;-82
2021/12/07 03:31:27;;;;;;;17.92;14.20;;;4.50;99.90;;;;;;5067236;28;20028;-82
2021/12/07 03:33:55;;;;;;;20.25;13.90;;;4.30;99.90;;;;;;5068616;28;20544;-82
2021/12/07 03:36:21;;;;;;;18.58;13.18;;;4.40;99.90;;;;;;5068849;28;20036;-83
2021/12/07 03:38:47;;;;;;;19.15;13.43;;;4.10;99.90;;;;;;5068437;28;20154;-82
2021/12/07 03:41:14;;;;;;;18.90;13.52;;;4.10;99.90;;;;;;5070980;28;20107;-82
2021/12/07 03:43:40;;;;;;;15.88;12.43;;;4.00;99.90;;;;;;5071182;28;20392;-82
2021/12/07 03:46:06;;;;;;;19.48;13.13;;;3.90;99.90;;;;;;5067922;28;20024;-82
2021/12/07 03:48:33;;;;;;;17.63;12.65;;;3.80;99.90;;;;;;5068390;28;20473;-82
2021/12/07 03:50:58;;;;;;;18.02;12.30;;;3.80;99.90;;;;;;5068387;28;20032;-82
2021/12/07 03:53:25;;;;;;;19.58;12.57;;;3.80;99.90;;;;;;5068354;28;20041;-82
2021/12/07 03:55:50;;;;;;;16.02;11.95;;;4.20;99.90;;;;;;5056020;28;20104;-82
2021/12/07 03:58:16;;;;;;;16.60;12.13;;;3.60;99.90;;;;;;5068215;28;20166;-82
2021/12/07 04:00:45;;;;;;;17.48;12.93;;;3.60;99.90;;;;;;5067740;28;20020;-83
2021/12/07 04:03:13;;;;;;;17.65;12.70;;;3.60;99.90;;;;;;5068293;28;20150;-82
2021/12/07 04:05:45;;;;;;;21.23;13.07;;;3.60;99.90;;;;;;5067133;28;20048;-82
2021/12/07 04:08:17;;;;;;;19.15;12.73;;;3.60;99.90;;;;;;5071392;28;20567;-82
2021/12/07 04:10:44;;;;;;;17.13;12.68;;;3.50;99.90;;;;;;5070968;28;20058;-82
2021/12/07 04:13:10;;;;;;;18.50;12.57;;;3.50;99.90;;;;;;5067771;28;20044;-82
2021/12/07 04:15:36;;;;;;;18.73;13.18;;;3.50;99.90;;;;;;5049978;28;20382;-83
2021/12/07 04:18:03;;;;;;;18.55;12.60;;;3.50;99.90;;;;;;5067219;28;20043;-82
2021/12/07 04:20:28;;;;;;;18.05;13.20;;;3.50;99.90;;;;;;5036601;28;20052;-82
2021/12/07 04:22:54;;;;;;;19.88;13.13;;;3.50;99.90;;;;;;5074023;28;20071;-83
2021/12/07 04:25:20;;;;;;;17.55;12.45;;;3.40;99.90;;;;;;5067534;28;20029;-82
2021/12/07 04:27:46;;;;;;;18.30;12.93;;;3.40;99.90;;;;;;5067942;28;20048;-82
2021/12/07 04:30:15;;;;;;;16.80;11.85;;;3.40;99.90;;;;;;5067240;28;20522;-82
2021/12/07 04:32:42;;;;;;;17.88;12.30;;;3.40;99.90;;;;;;5065806;28;20045;-83
2021/12/07 04:35:10;;;;;;;18.02;12.70;;;3.40;99.90;;;;;;5071842;28;20024;-83
2021/12/07 04:37:36;;;;;;;17.35;11.95;;;3.40;99.90;;;;;;5056718;28;20031;-83
2021/12/07 04:40:03;;;;;;;19.88;12.63;;;3.30;99.90;;;;;;5062974;28;20029;-82
2021/12/07 04:42:29;;;;;;;18.02;13.05;;;3.20;99.90;;;;;;5067114;28;20085;-83
2021/12/07 04:44:59;;;;;;;21.02;13.98;;;3.20;99.90;;;;;;5066383;28;20099;-83
2021/12/07 04:47:43;;;;;;;19.15;13.25;;;3.20;99.90;;;;;;5068112;28;20130;-83
2021/12/07 04:58:15;;;;;;;19.80;13.68;;;3.90;99.90;;;;;;5067192;28;20518;-83
2021/12/07 05:00:41;;;;;;;20.95;13.07;;;3.70;99.90;;;;;;5066345;28;20115;-83
2021/12/07 05:03:11;;;;;;;19.77;12.63;;;3.70;99.90;;;;;;5067214;28;20120;-82
2021/12/07 05:05:43;;;;;;;17.42;12.57;;;3.70;99.90;;;;;;5067013;28;20040;-83
2021/12/07 05:08:12;;;;;;;17.80;12.65;;;3.80;99.90;;;;;;5070298;28;20033;-82
2021/12/07 05:13:26;;;;;;;16.88;11.25;;;3.90;99.90;;;;;;5064925;28;20040;-83
2021/12/07 05:40:10;;;;;;;18.10;11.25;;;3.90;99.90;;;;;;4966872;28;20092;-82
2021/12/07 05:42:37;;;;;;;17.42;11.65;;;3.90;99.90;;;;;;4966998;28;20512;-83
2021/12/07 05:45:04;;;;;;;17.85;12.13;;;3.80;99.90;;;;;;4966304;28;20100;-82
2021/12/07 05:47:30;;;;;;;22.10;13.18;;;3.80;99.90;;;;;;4966915;28;20031;-82
2021/12/07 05:49:56;;;;;;;20.00;13.60;;;3.90;99.90;;;;;;4971608;28;20031;-83
2021/12/07 05:52:22;;;;;;;20.95;14.25;;;3.90;99.90;;;;;;4966647;28;20035;-83
2021/12/07 05:54:48;;;;;;;20.75;13.95;;;3.80;99.90;;;;;;4966670;28;20031;-83
2021/12/07 05:57:14;;;;;;;19.67;12.82;;;3.80;99.90;;;;;;4999365;28;20037;-83
2021/12/07 05:59:40;;;;;;;18.50;12.93;;;3.80;99.90;;;;;;5046064;28;20037;-83
2021/12/07 06:02:06;;;;;;;17.98;12.65;;;3.70;99.90;;;;;;5050052;28;20394;-82
2021/12/07 06:04:32;;;;;;;15.98;11.80;;;3.80;99.90;;;;;;5046764;28;20107;-82
2021/12/07 06:06:58;;;;;;;18.40;12.88;;;3.70;99.90;;;;;;5045872;28;20113;-82
2021/12/07 06:09:26;;;;;;;18.13;13.10;;;3.80;99.90;;;;;;5045667;28;20378;-83
2021/12/07 06:11:53;;;;;;;17.75;12.90;;;3.90;99.90;;;;;;5045507;28;20108;-83
2021/12/07 06:14:20;;;;;;;19.75;12.82;;;3.70;99.90;;;;;;5046510;28;20038;-83
2021/12/07 06:16:49;;;;;;;18.80;12.40;;;3.60;99.90;;;;;;5050616;28;20492;-83
2021/12/07 06:19:14;;;;;;;19.08;13.13;;;3.50;99.90;;;;;;5045540;28;20032;-82
2021/12/07 06:21:40;;;;;;;16.75;12.35;;;3.50;99.90;;;;;;5045307;28;20538;-82
2021/12/07 06:24:06;;;;;;;18.73;13.52;;;3.50;99.90;;;;;;5045564;28;20551;-83
2021/12/07 06:26:35;;;;;;;15.77;11.02;;;3.50;99.90;;;;;;5045800;28;20120;-82
2021/12/07 06:29:00;;;;;;;14.68;10.85;;;3.60;99.90;;;;;;5068017;28;20516;-83
2021/12/07 06:31:26;;;;;;;15.27;10.57;;;3.60;99.90;;;;;;5064746;28;20039;-83
2021/12/07 06:33:52;;;;;;;15.55;9.88;;;3.70;99.90;;;;;;5064317;28;20024;-82
2021/12/07 06:36:18;;;;;;;14.02;10.32;;;4.10;99.90;;;;;;5065350;28;20043;-83
2021/12/07 06:38:45;;;;;;;14.85;10.82;;;3.80;99.90;;;;;;5065570;28;20017;-83
2021/12/07 06:41:10;;;;;;;15.90;10.57;;;3.90;99.90;;;;;;5068856;28;20115;-83
2021/12/07 06:43:37;;;;;;;15.23;10.63;;;4.00;99.90;;;;;;5067095;28;20124;-83
2021/12/07 06:46:02;;;;;;;18.05;11.15;;;4.40;99.90;;;;;;5064670;28;20047;-83
2021/12/07 06:48:28;;;;;;;16.63;10.73;;;4.20;99.90;;;;;;5065275;28;20020;-82
2021/12/07 06:50:54;;;;;;;16.13;11.68;;;4.10;99.90;;;;;;5065139;28;20400;-83
2021/12/07 06:53:19;;;;;;;16.17;10.82;;;4.30;99.90;;;;;;5065935;28;20068;-82
2021/12/07 06:55:45;;;;;;;17.98;14.00;;;4.30;99.90;;;;;;5072864;28;20031;-83
2021/12/07 06:58:11;;;;;;;20.92;14.38;;;4.20;99.90;;;;;;5068095;28;20029;-83
2021/12/07 07:00:37;;;;;;;18.60;13.38;;;4.10;99.90;;;;;;5069332;28;20056;-82
2021/12/07 07:03:03;;;;;;;21.77;14.10;;;4.10;99.90;;;;;;5069181;28;20507;-83
2021/12/07 07:05:30;;;;;;;20.92;13.98;;;4.00;99.90;;;;;;5069367;28;20018;-81
2021/12/07 07:07:56;;;;;;;23.48;15.13;;;3.80;99.90;;;;;;5075600;28;20032;-83
2021/12/07 07:10:22;;;;;;;21.05;14.15;;;4.40;99.90;;;;;;5067622;28;20523;-83
2021/12/07 07:12:48;;;;;;;21.95;14.55;;;4.00;99.90;;;;;;5068984;28;20029;-82
2021/12/07 07:15:14;;;;;;;31.90;16.27;;;4.00;99.90;;;;;;5069106;28;20074;-82
2021/12/07 07:17:40;;;;;;;25.67;14.75;;;4.80;99.90;;;;;;5069012;28;20056;-83
2021/12/07 07:20:09;;;;;;;24.17;15.20;;;4.10;99.90;;;;;;5072925;28;20066;-83
2021/12/07 07:22:35;;;;;;;24.02;14.95;;;4.00;99.90;;;;;;5071596;28;20484;-84
2021/12/07 07:25:01;;;;;;;21.33;14.60;;;3.90;99.90;;;;;;5068565;28;20036;-85
2021/12/07 07:27:27;;;;;;;22.92;15.50;;;3.90;99.90;;;;;;5067376;28;20023;-85
2021/12/07 07:29:52;;;;;;;19.15;13.98;;;3.80;99.90;;;;;;5068937;28;20051;-85
2021/12/07 07:32:18;;;;;;;20.38;14.82;;;3.90;99.90;;;;;;5069994;28;20497;-85
2021/12/07 07:34:44;;;;;;;22.30;14.45;;;3.70;99.90;;;;;;5073286;28;20032;-85
2021/12/07 07:37:09;;;;;;;22.20;14.75;;;3.80;99.90;;;;;;5069026;28;20497;-85
2021/12/07 07:39:35;;;;;;;20.60;13.93;;;4.00;99.90;;;;;;5068429;28;20032;-85
2021/12/07 07:42:01;;;;;;;21.63;13.80;;;4.30;99.90;;;;;;5068825;28;20052;-85
2021/12/07 07:44:26;;;;;;;23.05;15.43;;;4.90;99.90;;;;;;5019286;28;20043;-85
2021/12/07 07:46:52;;;;;;;25.55;16.42;;;4.90;99.90;;;;;;5074170;28;20025;-85
2021/12/07 07:49:18;;;;;;;21.75;15.57;;;5.60;99.90;;;;;;5068193;28;20036;-85
2021/12/07 07:51:43;;;;;;;26.05;18.33;;;6.90;99.90;;;;;;5067701;28;20028;-85
2021/12/07 07:54:09;;;;;;;22.10;15.25;;;6.70;99.90;;;;;;5050075;28;20840;-85
2021/12/07 07:56:36;;;;;;;22.02;15.57;;;6.50;99.90;;;;;;5068926;28;20059;-85
2021/12/07 07:59:03;;;;;;;20.08;13.45;;;5.60;99.90;;;;;;5073246;28;20514;-85
2021/12/07 08:01:31;;;;;;;17.42;13.55;;;5.10;99.90;;;;;;5068397;28;20054;-88
2021/12/07 08:03:58;;;;;;;13.32;10.48;;;5.30;99.90;;;;;;5067882;28;20170;-85
2021/12/07 08:06:24;;;;;;;15.63;10.13;;;4.90;99.90;;;;;;5067131;28;20488;-85
2021/12/07 08:08:50;;;;;;;16.77;11.80;;;5.30;99.90;;;;;;5067565;28;20028;-85
2021/12/07 08:11:16;;;;;;;19.88;13.05;;;5.10;99.90;;;;;;5069915;28;20024;-85
2021/12/07 08:13:41;;;;;;;19.58;13.10;;;5.10;99.90;;;;;;5072123;28;20416;-85
2021/12/07 08:16:15;;;;;;;20.33;13.18;;;5.10;99.90;;;;;;5067607;28;20392;-85
2021/12/07 08:18:45;;;;;;;18.88;12.90;;;5.10;99.90;;;;;;5067850;28;20027;-85
2021/12/07 08:21:11;;;;;;;18.42;12.88;;;5.30;99.90;;;;;;5067593;28;20048;-85
2021/12/07 08:23:37;;;;;;;17.60;12.73;;;5.50;99.90;;;;;;5067920;28;20043;-85
2021/12/07 08:26:03;;;;;;;21.08;12.98;;;5.50;99.90;;;;;;5072307;28;20035;-85
2021/12/07 08:28:29;;;;;;;18.33;13.07;;;5.50;99.90;;;;;;5051194;28;20130;-85
2021/12/07 08:30:54;;;;;;;22.05;15.20;;;5.40;99.90;;;;;;5067277;28;20483;-85
2021/12/07 08:33:20;;;;;;;22.55;15.23;;;5.50;99.90;;;;;;5068022;28;20094;-85
2021/12/07 08:35:47;;;;;;;21.52;15.30;;;5.50;99.90;;;;;;5067366;28;20045;-84
2021/12/07 08:38:13;;;;;;;18.58;14.05;;;5.50;99.90;;;;;;5070543;28;20063;-85
2021/12/07 08:40:39;;;;;;;20.55;14.00;;;6.10;99.90;;;;;;5068353;28;20021;-85
2021/12/07 08:43:07;;;;;;;19.48;14.73;;;8.60;99.90;;;;;;5067157;28;20039;-85
2021/12/07 08:45:33;;;;;;;19.05;13.45;;;10.20;99.90;;;;;;5067315;28;20047;-85
2021/12/07 08:47:59;;;;;;;15.68;11.30;;;13.40;99.90;;;;;;5067721;28;20500;-85
2021/12/07 08:50:29;;;;;;;13.63;10.80;;;16.20;99.90;;;;;;5067482;28;20044;-85
2021/12/07 08:53:02;;;;;;;14.98;8.98;;;16.90;99.90;;;;;;5064712;28;20551;-85
2021/12/07 09:00:57;;;;;;;11.68;8.63;;;20.40;99.90;;;;;;5067068;28;20085;-85
2021/12/07 09:03:23;;;;;;;10.50;7.80;;;20.90;99.90;;;;;;5066478;28;20024;-85
2021/12/07 09:05:49;;;;;;;11.27;8.27;;;20.60;99.90;;;;;;5067400;28;20103;-85
2021/12/07 09:08:15;;;;;;;10.75;9.15;;;20.60;99.90;;;;;;5068459;28;20033;-85
2021/12/07 09:10:41;;;;;;;11.88;8.70;;;21.00;99.90;;;;;;5071488;28;20096;-85
2021/12/07 09:13:08;;;;;;;12.10;9.90;;;21.20;99.90;;;;;;5066516;28;20459;-85
2021/12/07 09:15:34;;;;;;;10.18;8.52;;;20.70;99.90;;;;;;5067332;28;20400;-85
2021/12/07 09:18:00;;;;;;;10.75;9.15;;;21.50;99.90;;;;;;5065162;28;20029;-86
2021/12/07 09:20:26;;;;;;;12.13;9.05;;;23.00;99.90;;;;;;5066364;28;20563;-86
2021/12/07 09:22:51;;;;;;;18.30;13.95;;;23.30;99.90;;;;;;5072341;28;20111;-85
2021/12/07 09:25:18;;;;;;;16.00;14.20;;;21.90;99.90;;;;;;5067139;28;20508;-86
2021/12/07 09:27:44;;;;;;;15.93;13.57;;;22.40;99.90;;;;;;5066281;28;20079;-86
2021/12/07 09:30:13;;;;;;;18.77;15.07;;;21.60;99.90;;;;;;5066639;28;20062;-86
2021/12/07 09:32:39;;;;;;;17.00;14.70;;;22.00;99.90;;;;;;5066081;28;20040;-86
2021/12/07 09:35:07;;;;;;;18.65;15.50;;;21.40;99.90;;;;;;5071153;28;20028;-85
2021/12/07 09:37:34;;;;;;;20.40;16.00;;;22.20;99.90;;;;;;5068601;28;20476;-85
2021/12/07 09:40:00;;;;;;;19.40;16.00;;;21.50;99.90;;;;;;5048525;28;20468;-86
2021/12/07 09:42:25;;;;;;;17.70;15.85;;;21.50;99.90;;;;;;5066159;28;20024;-86
2021/12/07 09:44:51;;;;;;;19.60;15.75;;;23.50;99.90;;;;;;5066321;28;20122;-85
2021/12/07 09:47:17;;;;;;;20.67;16.08;;;24.40;99.90;;;;;;5067691;28;20078;-86
2021/12/07 09:49:42;;;;;;;17.42;15.60;;;24.30;99.90;;;;;;5070547;28;20028;-85
2021/12/07 09:52:08;;;;;;;17.88;15.90;;;23.00;99.90;;;;;;5065873;28;20472;-86
2021/12/07 09:54:34;;;;;;;40.30;16.88;;;23.90;99.90;;;;;;5066047;28;20115;-86
2021/12/07 09:57:00;;;;;;;19.55;16.48;;;24.60;99.90;;;;;;5064487;28;20481;-86
2021/12/07 09:59:25;;;;;;;19.05;16.70;;;21.70;99.90;;;;;;5066752;28;20425;-86
2021/12/07 10:01:51;;;;;;;19.90;15.60;;;22.40;99.90;;;;;;5071363;28;20056;-86
2021/12/07 10:04:18;;;;;;;18.65;16.67;;;23.90;99.90;;;;;;5065852;28;20033;-86
2021/12/07 10:06:44;;;;;;;17.88;16.08;;;23.90;99.90;;;;;;5065712;28;20024;-86
2021/12/07 10:09:10;;;;;;;18.13;16.23;;;24.50;99.90;;;;;;5066039;28;20033;-86
2021/12/07 10:11:35;;;;;;;18.33;15.80;;;25.50;99.90;;;;;;5065776;28;20033;-86
2021/12/07 10:14:01;;;;;;;17.92;15.18;;;26.20;99.90;;;;;;5071227;28;20066;-86
2021/12/07 10:16:28;;;;;;;17.50;15.27;;;26.50;99.90;;;;;;5064932;28;20077;-86
2021/12/07 10:18:54;;;;;;;17.25;15.18;;;26.60;99.90;;;;;;5065520;28;20059;-86
2021/12/07 10:21:24;;;;;;;16.25;14.65;;;28.10;99.90;;;;;;5065661;28;20078;-86
2021/12/07 10:23:54;;;;;;;17.63;15.60;;;27.40;99.90;;;;;;5066146;28;20036;-85
2021/12/07 10:26:26;;;;;;;17.65;15.80;;;27.00;99.90;;;;;;5066919;28;20038;-87
2021/12/07 10:29:13;;;;;;;17.52;15.73;;;27.30;99.90;;;;;;5071282;28;20102;-85
2021/12/07 10:31:53;;;;;;;15.32;13.80;;;26.70;99.90;;;;;;5069191;28;20434;-86
2021/12/07 10:34:22;;;;;;;14.23;12.82;;;26.10;99.90;;;;;;5065420;28;20496;-86
2021/12/07 10:37:12;;;;;;;17.80;15.95;;;26.50;99.90;;;;;;5064080;28;20016;-87
2021/12/07 10:39:41;;;;;;;15.75;12.98;;;27.00;99.90;;;;;;5065296;28;20074;-87
2021/12/07 10:42:12;;;;;;;16.73;12.52;;;27.50;99.90;;;;;;5065339;28;20044;-86
2021/12/07 10:44:40;;;;;;;16.17;14.38;;;27.00;99.90;;;;;;5065593;28;20037;-86
2021/12/07 10:47:08;;;;;;;15.15;13.05;;;27.60;99.90;;;;;;5069897;28;20500;-86
2021/12/07 10:49:44;;;;;;;15.13;13.48;;;27.80;99.90;;;;;;5068325;28;20025;-87
2021/12/07 10:52:18;;;;;;;13.55;12.15;;;27.20;99.90;;;;;;5065164;28;20154;-86
2021/12/07 10:55:08;;;;;;;13.27;11.88;;;26.60;99.90;;;;;;5065716;28;20163;-86
2021/12/07 10:58:00;;;;;;;14.25;12.73;;;25.40;99.90;;;;;;5065287;28;20374;-86
2021/12/07 11:00:36;;;;;;;14.32;12.75;;;25.50;99.90;;;;;;5064883;28;20103;-86
2021/12/07 11:03:10;;;;;;;12.88;11.23;;;24.70;99.90;;;;;;5065124;28;20024;-86
2021/12/07 11:05:43;;;;;;;14.20;10.93;;;24.30;99.90;;;;;;5065764;28;20397;-86
2021/12/07 11:08:10;;;;;;;13.10;11.68;;;24.40;99.90;;;;;;5069261;28;20027;-87
2021/12/07 11:10:48;;;;;;;12.85;11.02;;;25.20;99.90;;;;;;5068182;28;20029;-85
2021/12/07 11:13:23;;;;;;;12.10;10.85;;;25.90;99.90;;;;;;5065093;28;20045;-84
2021/12/07 11:15:54;;;;;;;13.90;10.88;;;25.40;99.90;;;;;;5063338;28;20029;-85
2021/12/07 11:18:30;;;;;;;11.80;10.60;;;24.90;99.90;;;;;;5067991;28;20044;-84
2021/12/07 11:21:01;;;;;;;12.85;11.48;;;24.50;99.90;;;;;;5065333;28;20036;-85
2021/12/07 11:23:34;;;;;;;11.27;9.90;;;24.20;99.90;;;;;;5033551;28;20022;-85
2021/12/07 11:31:23;;;;;;;11.00;9.75;;;24.40;99.90;;;;;;5065357;28;20553;-89
2021/12/07 11:33:51;;;;;;;11.55;9.38;;;25.10;99.90;;;;;;5065002;28;20090;-88
2021/12/07 11:36:22;;;;;;;10.48;8.85;;;25.90;99.90;;;;;;5064773;28;20057;-89
2021/12/07 11:38:48;;;;;;;7.80;6.63;;;25.50;99.90;;;;;;5065657;28;20029;-88
2021/12/07 11:41:21;;;;;;;10.32;8.27;;;25.80;99.90;;;;;;5067430;28;20100;-88
2021/12/07 11:44:09;;;;;;;11.45;7.40;;;25.90;99.90;;;;;;5071724;28;20028;-89
2021/12/07 11:46:38;;;;;;;10.73;7.57;;;25.40;99.90;;;;;;5058151;28;20045;-83
2021/12/07 11:49:16;;;;;;;8.05;6.72;;;23.60;99.90;;;;;;5068376;28;20063;-88
2021/12/07 11:51:44;;;;;;;8.88;7.45;;;22.00;99.90;;;;;;5068666;28;20024;-88
2021/12/07 11:54:12;;;;;;;9.18;7.75;;;22.50;99.90;;;;;;5066826;28;20032;-88
2021/12/07 11:56:39;;;;;;;6.30;4.30;;;22.50;99.90;;;;;;5068548;28;20049;-88
2021/12/07 11:59:06;;;;;;;7.45;3.15;;;22.30;99.90;;;;;;5072616;28;20032;-87
2021/12/07 12:01:31;;;;;;;4.80;3.00;;;22.30;99.90;;;;;;5069792;28;20028;-86
2021/12/07 12:03:57;;;;;;;5.10;2.50;;;22.00;99.90;;;;;;5068334;28;20162;-86
2021/12/07 12:06:23;;;;;;;4.72;2.72;;;21.40;99.90;;;;;;5067957;28;20029;-83
2021/12/07 12:08:50;;;;;;;5.38;3.03;;;21.40;99.90;;;;;;5068004;28;20025;-88
2021/12/07 12:11:20;;;;;;;3.78;2.42;;;21.30;99.90;;;;;;5069824;28;20381;-91
2021/12/07 12:14:15;;;;;;;3.30;2.20;;;21.50;99.90;;;;;;5072520;28;20040;-92
2021/12/07 12:17:13;;;;;;;6.22;2.50;;;21.90;99.90;;;;;;5052556;28;20385;-90
2021/12/07 12:19:49;;;;;;;4.03;2.30;;;21.30;99.90;;;;;;5035636;28;20113;-91
2021/12/07 12:22:43;;;;;;;4.43;2.33;;;21.60;99.90;;;;;;5049827;28;20392;-95
2021/12/07 12:25:12;;;;;;;5.20;1.90;;;21.90;99.90;;;;;;5068053;28;20028;-90
2021/12/07 12:27:40;;;;;;;4.85;2.30;;;21.70;99.90;;;;;;5067219;28;20043;-89
2021/12/07 12:30:19;;;;;;;7.75;2.10;;;21.50;99.90;;;;;;5067442;28;20523;-86
2021/12/07 12:32:47;;;;;;;4.57;1.88;;;21.20;99.90;;;;;;5048199;28;20033;-85
2021/12/07 12:35:14;;;;;;;4.25;2.65;;;22.10;99.90;;;;;;5069995;28;20139;-85
2021/12/07 12:37:47;;;;;;;8.57;3.00;;;22.10;99.90;;;;;;5069768;28;20028;-85
2021/12/07 12:40:26;;;;;;;8.02;2.70;;;21.30;99.90;;;;;;5067269;28;20032;-85
2021/12/07 12:42:54;;;;;;;6.72;2.40;;;20.50;99.90;;;;;;5066967;28;20060;-85
2021/12/07 12:45:37;;;;;;;3.95;2.22;;;20.50;99.90;;;;;;5067595;28;20039;-85
2021/12/07 12:48:08;;;;;;;5.38;2.65;;;19.60;99.90;;;;;;5067006;28;20500;-86
2021/12/07 12:50:49;;;;;;;6.40;2.65;;;18.50;99.90;;;;;;5067525;28;20025;-85
2021/12/07 12:53:24;;;;;;;6.32;2.60;;;18.40;99.90;;;;;;5069133;28;20072;-85
2021/12/07 12:55:56;;;;;;;6.50;3.53;;;18.30;99.90;;;;;;5072338;28;20016;-85
2021/12/07 12:58:33;;;;;;;6.32;3.00;;;17.00;99.90;;;;;;5067216;28;20036;-85
2021/12/07 13:01:18;;;;;;;6.15;3.47;;;16.80;99.90;;;;;;5067037;28;20051;-85
2021/12/07 13:03:50;;;;;;;4.65;2.95;;;16.30;99.90;;;;;;5066952;28;20033;-85
2021/12/07 13:06:18;;;;;;;5.25;3.40;;;15.90;99.90;;;;;;5066725;28;20020;-85
2021/12/07 13:09:07;;;;;;;9.57;3.50;;;15.60;99.90;;;;;;5067168;28;20036;-85
2021/12/07 13:11:36;;;;;;;6.70;3.40;;;14.80;99.90;;;;;;5034590;28;20035;-85
2021/12/07 13:14:07;;;;;;;5.47;3.53;;;15.00;99.90;;;;;;5072132;28;20131;-85
2021/12/07 13:16:34;;;;;;;7.05;3.92;;;14.70;99.90;;;;;;5068991;28;20056;-85
2021/12/07 13:19:09;;;;;;;7.25;3.50;;;14.30;99.90;;;;;;5067248;28;20028;-85
2021/12/07 13:21:43;;;;;;;5.65;3.40;;;14.20;99.90;;;;;;5066503;28;20021;-85
2021/12/07 13:24:20;;;;;;;4.85;3.20;;;14.10;99.90;;;;;;5066459;28;20032;-85
2021/12/07 13:26:52;;;;;;;5.45;2.83;;;13.80;99.90;;;;;;5066597;28;20021;-86
2021/12/07 13:29:23;;;;;;;7.07;3.30;;;13.10;99.90;;;;;;5068301;28;20051;-85
2021/12/07 13:32:02;;;;;;;6.55;2.88;;;12.80;99.90;;;;;;5071749;28;20025;-86
2021/12/07 13:34:36;;;;;;;6.15;2.78;;;12.50;99.90;;;;;;5065593;28;20045;-85
2021/12/07 13:37:08;;;;;;;5.07;2.60;;;12.20;99.90;;;;;;5066587;28;20416;-85
2021/12/07 13:39:44;;;;;;;7.20;2.35;;;12.10;99.90;;;;;;5065847;28;20025;-85
2021/12/07 13:42:16;;;;;;;5.10;2.67;;;12.20;99.90;;;;;;5066255;28;20021;-85
2021/12/07 13:45:05;;;;;;;5.93;2.10;;;12.20;99.90;;;;;;5066144;28;20036;-85
2021/12/07 13:47:42;;;;;;;6.07;2.00;;;12.20;99.90;;;;;;5034838;28;20022;-85
2021/12/07 13:50:18;;;;;;;6.18;1.85;;;12.10;99.90;;;;;;5070304;28;20051;-85
2021/12/07 13:52:47;;;;;;;5.93;1.95;;;11.80;99.90;;;;;;5069357;28;20123;-85
2021/12/07 13:55:19;;;;;;;5.45;2.10;;;11.70;99.90;;;;;;5065733;28;20546;-85
2021/12/07 13:57:49;;;;;;;6.20;1.83;;;11.60;99.90;;;;;;5065880;28;20024;-85
2021/12/07 14:00:19;;;;;;;3.30;1.73;;;11.50;99.90;;;;;;5066304;28;20024;-85
2021/12/07 14:02:55;;;;;;;6.13;2.40;;;11.40;99.90;;;;;;5066014;28;20112;-84
2021/12/07 14:05:43;;;;;;;6.63;2.15;;;11.50;99.90;;;;;;5066674;28;20428;-85
2021/12/07 14:08:11;;;;;;;5.68;2.42;;;11.50;99.90;;;;;;5064117;28;20029;-86
2021/12/07 14:10:53;;;;;;;7.15;2.35;;;11.40;99.90;;;;;;5069425;28;20107;-84
2021/12/07 14:13:20;;;;;;;5.15;2.45;;;11.50;99.90;;;;;;5065545;28;20032;-85
2021/12/07 14:15:48;;;;;;;8.75;3.80;;;11.50;99.90;;;;;;5066185;28;20115;-85
2021/12/07 14:18:15;;;;;;;8.07;3.92;;;11.40;99.90;;;;;;5065443;28;20396;-85
2021/12/07 14:20:55;;;;;;;4.75;1.98;;;11.60;99.90;;;;;;5066081;28;20032;-85
2021/12/07 14:23:39;;;;;;;5.55;2.03;;;11.10;99.90;;;;;;5066802;28;20033;-85
2021/12/07 14:26:20;;;;;;;5.70;1.88;;;11.10;99.90;;;;;;5064321;28;20071;-85
2021/12/07 14:29:03;;;;;;;7.47;2.30;;;10.60;99.90;;;;;;5069130;28;20051;-85
2021/12/07 14:31:47;;;;;;;6.20;2.15;;;10.70;99.90;;;;;;5064934;28;20492;-85
2021/12/07 14:34:30;;;;;;;6.00;2.33;;;10.90;99.90;;;;;;5065214;28;20126;-85
2021/12/07 14:37:03;;;;;;;5.18;2.35;;;10.80;99.90;;;;;;5065166;28;20016;-85
2021/12/07 14:39:35;;;;;;;6.15;2.60;;;10.60;99.90;;;;;;5065958;28;20642;-84